createdAt,value
2022-08-03T00:00:36.008Z,5.70
2022-08-03T00:02:38.396Z,5.20
2022-08-03T00:04:40.627Z,5.47
2022-08-03T00:06:42.766Z,5.30
2022-08-03T00:08:45.006Z,5.33
2022-08-03T00:10:47.297Z,5.20
2022-08-03T00:12:49.447Z,5.00
2022-08-03T00:14:51.534Z,5.20
2022-08-03T00:16:53.665Z,4.77
2022-08-03T00:18:55.894Z,5.13
2022-08-03T00:20:58.169Z,5.20
2022-08-03T00:23:00.314Z,5.20
2022-08-03T00:25:02.508Z,5.40
2022-08-03T00:27:04.679Z,5.60
2022-08-03T00:29:06.897Z,4.97
2022-08-03T00:31:09.239Z,5.90
2022-08-03T00:33:16.235Z,5.00
2022-08-03T00:35:37.093Z,5.00
2022-08-03T00:37:41.957Z,5.70
2022-08-03T00:39:46.343Z,5.13
2022-08-03T00:41:48.892Z,5.27
2022-08-03T00:43:51.136Z,5.23
2022-08-03T00:45:54.690Z,5.00
2022-08-03T00:47:57.230Z,5.27
2022-08-03T00:49:59.457Z,4.80
2022-08-03T00:52:07.857Z,4.67
2022-08-03T00:54:11.991Z,5.10
2022-08-03T00:56:15.436Z,5.00
2022-08-03T00:58:17.680Z,5.00
2022-08-03T01:00:22.706Z,5.40
2022-08-03T01:02:24.985Z,4.93
2022-08-03T01:04:27.400Z,6.07
2022-08-03T01:06:36.278Z,5.40
2022-08-03T01:08:54.917Z,5.20
2022-08-03T01:11:22.340Z,5.30
2022-08-03T01:14:04.518Z,5.37
2022-08-03T01:16:03.495Z,5.17
2022-08-03T01:18:15.100Z,5.17
2022-08-03T01:20:18.643Z,4.83
2022-08-03T01:22:40.955Z,5.20
2022-08-03T01:25:03.962Z,5.33
2022-08-03T01:27:12.064Z,5.97
2022-08-03T01:30:02.103Z,5.03
2022-08-03T01:32:58.359Z,5.10
2022-08-03T01:35:00.724Z,5.13
2022-08-03T01:37:04.338Z,5.57
2022-08-03T01:39:11.512Z,5.20
2022-08-03T01:41:34.572Z,5.00
2022-08-03T01:44:28.231Z,4.70
2022-08-03T01:46:00.391Z,5.53
2022-08-03T01:48:03.680Z,4.97
2022-08-03T01:50:06.316Z,5.57
2022-08-03T01:52:08.728Z,5.60
2022-08-03T01:54:11.773Z,5.90
2022-08-03T01:56:17.099Z,5.20
2022-08-03T01:58:20.302Z,5.40
2022-08-03T02:00:24.303Z,5.37
2022-08-03T02:02:32.700Z,5.33
2022-08-03T02:04:38.288Z,5.40
2022-08-03T02:06:59.672Z,4.70
2022-08-03T02:09:03.753Z,5.30
2022-08-03T02:11:06.174Z,5.33
2022-08-03T02:13:09.302Z,5.50
2022-08-03T02:15:12.619Z,5.60
2022-08-03T02:17:17.210Z,5.40
2022-08-03T02:19:19.783Z,5.53
2022-08-03T02:21:56.485Z,5.67
2022-08-03T02:23:45.812Z,6.00
2022-08-03T02:25:52.899Z,5.70
2022-08-03T02:28:21.236Z,5.80
2022-08-03T02:30:28.247Z,5.30
2022-08-03T02:32:33.372Z,5.80
2022-08-03T02:34:36.125Z,5.07
2022-08-03T02:36:39.746Z,5.63
2022-08-03T02:38:44.104Z,5.20
2022-08-03T02:40:46.500Z,6.10
2022-08-03T02:42:51.021Z,5.60
2022-08-03T02:44:55.750Z,6.30
2022-08-03T02:47:02.548Z,6.10
2022-08-03T02:49:40.729Z,5.57
2022-08-03T02:51:30.598Z,5.97
2022-08-03T02:53:33.694Z,5.50
2022-08-03T02:55:36.267Z,5.70
2022-08-03T02:57:46.690Z,5.17
2022-08-03T02:59:49.789Z,6.50
2022-08-03T03:01:53.870Z,6.30
2022-08-03T03:03:57.634Z,6.10
2022-08-03T03:06:00.038Z,5.93
2022-08-03T03:08:02.762Z,6.30
2022-08-03T03:10:05.568Z,5.90
2022-08-03T03:12:08.691Z,6.53
2022-08-03T03:14:13.265Z,6.10
2022-08-03T03:16:16.372Z,5.40
2022-08-03T03:18:22.206Z,6.43
2022-08-03T03:20:29.419Z,5.53
2022-08-03T03:22:33.872Z,5.83
2022-08-03T03:24:36.751Z,5.73
2022-08-03T03:26:42.400Z,5.30
2022-08-03T03:28:45.082Z,6.03
2022-08-03T03:30:52.972Z,6.57
2022-08-03T03:32:56.179Z,5.50
2022-08-03T03:35:01.318Z,6.30
2022-08-03T03:37:03.493Z,5.70
2022-08-03T03:39:16.068Z,6.40
2022-08-03T03:41:18.303Z,6.63
2022-08-03T03:43:24.052Z,5.90
2022-08-03T03:45:26.938Z,5.97
2022-08-03T03:47:32.790Z,6.00
2022-08-03T03:49:35.259Z,6.10
2022-08-03T03:51:37.487Z,6.17
2022-08-03T03:53:39.654Z,5.90
2022-08-03T03:55:58.937Z,6.03
2022-08-03T03:58:05.017Z,6.23
2022-08-03T04:00:08.087Z,5.97
2022-08-03T04:02:11.572Z,5.97
2022-08-03T04:04:32.292Z,6.70
2022-08-03T04:06:52.694Z,6.40
2022-08-03T04:09:13.217Z,7.27
2022-08-03T04:11:20.207Z,6.13
2022-08-03T04:13:34.457Z,5.80
2022-08-03T04:15:38.597Z,7.17
2022-08-03T04:17:42.071Z,6.00
2022-08-03T04:19:47.875Z,6.70
2022-08-03T04:21:52.314Z,6.20
2022-08-03T04:23:56.768Z,6.80
2022-08-03T04:25:59.688Z,5.73
2022-08-03T04:28:20.968Z,6.10
2022-08-03T04:30:27.013Z,7.10
2022-08-03T04:32:29.413Z,7.23
2022-08-03T04:34:31.661Z,7.30
2022-08-03T04:36:38.656Z,7.40
2022-08-03T04:38:52.843Z,6.17
2022-08-03T04:40:56.507Z,6.50
2022-08-03T04:43:00.113Z,6.90
2022-08-03T04:45:04.282Z,7.33
2022-08-03T04:47:07.210Z,7.00
2022-08-03T04:49:09.533Z,5.80
2022-08-03T04:51:13.713Z,6.47
2022-08-03T04:53:16.792Z,5.60
2022-08-03T04:55:29.521Z,6.17
2022-08-03T04:57:31.898Z,6.77
2022-08-03T04:59:34.022Z,6.93
2022-08-03T05:01:44.400Z,6.00
2022-08-03T05:03:47.254Z,6.00
2022-08-03T05:05:50.603Z,6.80
2022-08-03T05:07:53.134Z,5.63
2022-08-03T05:10:01.605Z,6.50
2022-08-03T05:12:06.482Z,7.37
2022-08-03T05:14:08.543Z,6.97
2022-08-03T05:16:10.634Z,6.70
2022-08-03T05:18:14.305Z,6.47
2022-08-03T05:20:16.665Z,6.30
2022-08-03T05:22:21.891Z,5.20
2022-08-03T05:24:24.360Z,5.63
2022-08-03T05:26:26.741Z,5.83
2022-08-03T05:28:29.087Z,4.83
2022-08-03T05:30:33.916Z,5.37
2022-08-03T05:32:36.823Z,5.30
2022-08-03T05:34:39.249Z,4.87
2022-08-03T05:36:41.404Z,5.30
2022-08-03T05:38:43.572Z,5.13
2022-08-03T05:40:56.804Z,5.40
2022-08-03T05:43:01.834Z,5.00
2022-08-03T05:45:13.376Z,5.37
2022-08-03T05:47:15.574Z,5.10
2022-08-03T05:49:18.573Z,5.50
2022-08-03T05:51:20.795Z,5.60
2022-08-03T05:53:22.912Z,5.00
2022-08-03T05:55:25.280Z,4.10
2022-08-03T05:57:27.489Z,4.57
2022-08-03T05:59:38.052Z,5.10
2022-08-03T06:01:40.708Z,4.60
2022-08-03T06:03:42.966Z,4.17
2022-08-03T06:05:59.943Z,4.30
2022-08-03T06:08:03.871Z,4.73
2022-08-03T06:10:36.858Z,4.43
2022-08-03T06:12:29.610Z,4.20
2022-08-03T06:14:31.667Z,4.20
2022-08-03T06:16:33.839Z,3.40
2022-08-03T06:18:37.146Z,3.47
2022-08-03T06:20:39.263Z,3.80
2022-08-03T06:22:50.687Z,3.20
2022-08-03T06:24:54.575Z,3.20
2022-08-03T06:26:56.978Z,3.43
2022-08-03T06:28:59.311Z,2.67
2022-08-03T06:31:02.249Z,3.27
2022-08-03T06:33:04.355Z,3.10
2022-08-03T06:35:11.618Z,2.80
2022-08-03T06:37:13.838Z,2.50
2022-08-03T06:39:15.965Z,2.60
2022-08-03T06:41:18.181Z,2.60
2022-08-03T06:43:20.362Z,2.50
2022-08-03T06:45:22.812Z,2.53
2022-08-03T06:47:25.056Z,2.50
2022-08-03T06:49:27.912Z,2.53
2022-08-03T06:52:05.853Z,2.27
2022-08-03T06:53:52.312Z,2.10
2022-08-03T06:55:55.235Z,2.37
2022-08-03T06:58:00.149Z,2.10
2022-08-03T07:00:11.936Z,2.53
2022-08-03T07:02:19.139Z,2.70
2022-08-03T07:04:21.767Z,2.40
2022-08-03T07:06:23.915Z,2.40
2022-08-03T07:08:33.338Z,2.60
2022-08-03T07:10:37.045Z,2.70
2022-08-03T07:12:55.726Z,2.40
2022-08-03T07:15:01.843Z,2.47
2022-08-03T07:17:11.791Z,2.30
2022-08-03T07:19:14.519Z,2.70
2022-08-03T07:21:17.300Z,2.57
2022-08-03T07:23:19.572Z,2.10
2022-08-03T07:25:22.028Z,2.20
2022-08-03T07:27:26.919Z,2.30
2022-08-03T07:29:29.428Z,1.93
2022-08-03T07:31:36.941Z,1.90
2022-08-03T07:33:39.117Z,2.00
2022-08-03T07:35:41.332Z,2.00
2022-08-03T07:37:54.295Z,2.00
2022-08-03T07:39:57.684Z,1.70
2022-08-03T07:41:59.782Z,1.73
2022-08-03T07:44:02.246Z,2.23
2022-08-03T07:46:04.433Z,1.80
2022-08-03T07:48:11.967Z,2.10
2022-08-03T07:50:14.604Z,2.00
2022-08-03T07:52:35.442Z,2.10
2022-08-03T07:54:37.788Z,1.67
2022-08-03T07:56:39.915Z,1.73
2022-08-03T07:58:42.098Z,2.00
2022-08-03T08:00:44.825Z,1.93
2022-08-03T08:02:47.035Z,1.87
2022-08-03T08:04:49.298Z,1.80
2022-08-03T08:06:51.521Z,1.60
2022-08-03T08:08:54.018Z,1.80
2022-08-03T08:10:58.492Z,1.87
2022-08-03T08:13:01.063Z,2.13
2022-08-03T08:15:03.587Z,2.20
2022-08-03T08:17:07.364Z,1.87
2022-08-03T08:19:09.671Z,2.10
2022-08-03T08:21:14.965Z,2.20
2022-08-03T08:23:42.261Z,2.10
2022-08-03T08:25:45.291Z,1.90
2022-08-03T08:28:29.372Z,2.57
2022-08-03T08:30:14.889Z,2.80
2022-08-03T08:32:19.766Z,1.83
2022-08-03T08:34:22.004Z,2.13
2022-08-03T08:36:24.485Z,1.83
2022-08-03T08:38:26.766Z,2.63
2022-08-03T08:40:29.526Z,1.90
2022-08-03T08:42:32.612Z,2.03
2022-08-03T08:44:34.836Z,1.97
2022-08-03T08:46:38.535Z,2.00
2022-08-03T08:48:42.177Z,1.70
2022-08-03T08:50:45.116Z,1.80
2022-08-03T08:52:49.709Z,2.07
2022-08-03T08:54:56.588Z,1.60
2022-08-03T08:57:02.505Z,1.70
2022-08-03T08:59:04.895Z,1.73
2022-08-03T09:01:07.187Z,2.10
2022-08-03T09:03:09.370Z,2.03
2022-08-03T09:05:20.880Z,2.10
2022-08-03T09:07:30.403Z,2.10
2022-08-03T09:10:10.627Z,1.93
2022-08-03T09:12:09.001Z,1.90
2022-08-03T09:14:37.222Z,1.90
2022-08-03T09:16:56.482Z,1.87
2022-08-03T09:19:12.901Z,2.57
2022-08-03T09:21:33.591Z,2.30
2022-08-03T09:24:01.469Z,1.80
2022-08-03T09:26:05.649Z,2.10
2022-08-03T09:28:12.952Z,1.90
2022-08-03T09:30:36.196Z,2.40
2022-08-03T09:32:38.618Z,1.70
2022-08-03T09:34:40.822Z,1.70
2022-08-03T09:36:48.656Z,1.90
2022-08-03T09:39:11.548Z,1.87
2022-08-03T09:41:18.506Z,2.30
2022-08-03T09:43:22.637Z,2.13
2022-08-03T09:45:30.127Z,2.10
2022-08-03T09:47:36.324Z,1.87
2022-08-03T09:49:41.069Z,1.67
2022-08-03T09:52:31.433Z,2.03
2022-08-03T09:54:12.636Z,1.73
2022-08-03T09:56:34.480Z,1.77
2022-08-03T09:58:47.361Z,1.83
2022-08-03T10:00:57.234Z,1.73
2022-08-03T10:03:05.109Z,2.03
2022-08-03T10:05:09.550Z,2.07
2022-08-03T10:07:11.696Z,1.90
2022-08-03T10:09:16.069Z,1.70
2022-08-03T10:11:40.578Z,2.00
2022-08-03T10:13:44.383Z,1.97
2022-08-03T10:16:22.241Z,2.00
2022-08-03T10:18:09.171Z,2.00
2022-08-03T10:20:11.946Z,2.10
2022-08-03T10:22:23.168Z,1.97
2022-08-03T10:24:30.097Z,1.83
2022-08-03T10:26:38.964Z,2.33
2022-08-03T10:28:53.929Z,1.80
2022-08-03T10:30:56.574Z,2.37
2022-08-03T10:33:05.630Z,2.00
2022-08-03T10:35:29.677Z,1.47
2022-08-03T10:37:33.665Z,2.27
2022-08-03T10:39:36.357Z,1.67
2022-08-03T10:41:40.923Z,2.07
2022-08-03T10:43:49.832Z,1.70
2022-08-03T10:45:52.290Z,1.80
2022-08-03T10:47:56.025Z,1.90
2022-08-03T10:49:58.277Z,1.90
2022-08-03T10:52:00.719Z,1.60
2022-08-03T10:54:05.038Z,1.60
2022-08-03T10:56:50.316Z,1.73
2022-08-03T10:58:57.876Z,1.93
2022-08-03T11:01:00.989Z,1.90
2022-08-03T11:03:15.397Z,1.83
2022-08-03T11:05:26.396Z,1.67
2022-08-03T11:07:28.547Z,1.80
2022-08-03T11:09:44.499Z,2.37
2022-08-03T11:11:48.503Z,1.77
2022-08-03T11:14:05.348Z,2.00
2022-08-03T11:16:22.038Z,1.80
2022-08-03T11:18:26.878Z,2.20
2022-08-03T11:20:48.869Z,1.87
2022-08-03T11:22:54.106Z,1.80
2022-08-03T11:24:57.688Z,1.83
2022-08-03T11:27:14.739Z,1.90
2022-08-03T11:29:30.346Z,2.00
2022-08-03T11:31:49.339Z,2.07
2022-08-03T11:34:13.000Z,2.10
2022-08-03T11:36:32.110Z,1.83
2022-08-03T11:38:34.971Z,1.93
2022-08-03T11:40:46.686Z,1.93
2022-08-03T11:42:48.843Z,1.90
2022-08-03T11:44:52.015Z,1.80
2022-08-03T11:46:54.193Z,2.10
2022-08-03T11:49:09.838Z,1.80
2022-08-03T11:51:20.941Z,1.90
2022-08-03T11:53:23.069Z,1.83
2022-08-03T11:55:30.499Z,1.80
2022-08-03T11:59:09.311Z,2.07
2022-08-03T11:59:57.072Z,1.83
2022-08-03T12:02:12.523Z,2.00
2022-08-03T12:04:16.423Z,2.00
2022-08-03T12:06:19.378Z,1.83
2022-08-03T12:08:27.377Z,1.80
2022-08-03T12:10:29.568Z,1.90
2022-08-03T12:12:31.635Z,1.77
2022-08-03T12:14:50.666Z,1.77
2022-08-03T12:16:54.135Z,2.03
2022-08-03T12:19:07.000Z,2.20
2022-08-03T12:21:10.854Z,1.63
2022-08-03T12:23:13.370Z,1.87
2022-08-03T12:25:39.383Z,1.90
2022-08-03T12:27:42.126Z,2.03
2022-08-03T12:29:44.280Z,1.80
2022-08-03T12:32:01.065Z,2.17
2022-08-03T12:34:05.251Z,1.70
2022-08-03T12:36:09.457Z,1.73
2022-08-03T12:38:13.070Z,1.97
2022-08-03T12:40:20.589Z,2.30
2022-08-03T12:42:31.405Z,1.90
2022-08-03T12:44:35.918Z,1.70
2022-08-03T12:46:47.571Z,1.80
2022-08-03T12:49:15.580Z,1.87
2022-08-03T12:51:17.842Z,1.63
2022-08-03T12:53:29.139Z,1.57
2022-08-03T12:55:56.337Z,1.80
2022-08-03T12:57:57.304Z,1.80
2022-08-03T13:00:21.447Z,1.80
2022-08-03T13:02:30.922Z,1.80
2022-08-03T13:04:35.678Z,1.90
2022-08-03T13:06:37.774Z,2.13
2022-08-03T13:08:40.519Z,2.00
2022-08-03T13:10:43.278Z,1.90
2022-08-03T13:12:49.384Z,2.00
2022-08-03T13:14:59.993Z,2.00
2022-08-03T13:17:02.307Z,1.80
2022-08-03T13:19:04.522Z,1.80
2022-08-03T13:21:06.717Z,1.90
2022-08-03T13:23:10.090Z,1.90
2022-08-03T13:25:17.984Z,1.80
2022-08-03T13:28:02.472Z,1.80
2022-08-03T13:29:43.631Z,1.50
2022-08-03T13:31:50.249Z,1.97
2022-08-03T13:33:53.608Z,1.70
2022-08-03T13:35:55.877Z,1.90
2022-08-03T13:37:58.037Z,2.27
2022-08-03T13:40:02.969Z,2.10
2022-08-03T13:42:06.951Z,2.03
2022-08-03T13:44:29.105Z,2.27
2022-08-03T13:46:31.123Z,2.10
2022-08-03T13:48:37.291Z,1.77
2022-08-03T13:50:43.118Z,1.87
2022-08-03T13:52:46.839Z,2.07
2022-08-03T13:54:49.035Z,1.70
2022-08-03T13:56:56.727Z,1.97
2022-08-03T13:59:02.543Z,1.80
2022-08-03T14:01:04.694Z,1.73
2022-08-03T14:03:14.226Z,1.97
2022-08-03T14:05:17.165Z,1.80
2022-08-03T14:07:20.170Z,1.73
2022-08-03T14:09:22.589Z,1.83
2022-08-03T14:11:25.143Z,1.77
2022-08-03T14:13:47.671Z,1.90
2022-08-03T14:15:51.323Z,2.33
2022-08-03T14:17:53.720Z,1.90
2022-08-03T14:19:57.445Z,1.70
2022-08-03T14:22:03.684Z,2.03
2022-08-03T14:24:09.008Z,1.80
2022-08-03T14:26:12.131Z,1.87
2022-08-03T14:28:14.343Z,2.10
2022-08-03T14:30:16.631Z,1.60
2022-08-03T14:32:18.802Z,2.10
2022-08-03T14:34:21.059Z,1.70
2022-08-03T14:36:23.407Z,2.00
2022-08-03T14:38:25.547Z,1.97
2022-08-03T14:40:27.668Z,1.60
2022-08-03T14:42:29.804Z,1.80
2022-08-03T14:44:32.082Z,1.87
2022-08-03T14:46:34.403Z,1.90
2022-08-03T14:50:32.949Z,2.43
2022-08-03T14:50:59.163Z,1.77
2022-08-03T14:53:05.173Z,1.87
2022-08-03T14:55:07.911Z,2.07
2022-08-03T14:57:10.095Z,1.93
2022-08-03T14:59:12.373Z,1.60
2022-08-03T15:02:04.485Z,2.03
2022-08-03T15:03:36.703Z,2.00
2022-08-03T15:05:38.860Z,2.33
2022-08-03T15:07:41.268Z,2.40
2022-08-03T15:09:43.512Z,1.70
2022-08-03T15:11:45.654Z,1.90
2022-08-03T15:13:47.850Z,1.70
2022-08-03T15:15:50.090Z,1.90
2022-08-03T15:18:00.147Z,1.83
2022-08-03T15:20:23.288Z,1.50
2022-08-03T15:22:34.539Z,1.73
2022-08-03T15:24:37.355Z,2.00
2022-08-03T15:26:41.775Z,1.80
2022-08-03T15:28:44.209Z,2.03
2022-08-03T15:30:46.338Z,1.73
2022-08-03T15:32:48.427Z,1.90
2022-08-03T15:34:52.243Z,1.97
2022-08-03T15:36:54.600Z,1.53
2022-08-03T15:38:56.861Z,1.80
2022-08-03T15:40:59.284Z,1.63
2022-08-03T15:43:01.804Z,1.70
2022-08-03T15:45:04.374Z,1.80
2022-08-03T15:47:06.724Z,2.00
2022-08-03T15:49:08.900Z,2.00
2022-08-03T15:51:11.305Z,2.00
2022-08-03T15:53:13.450Z,2.07
2022-08-03T15:55:17.230Z,1.87
2022-08-03T15:57:19.967Z,1.80
2022-08-03T15:59:22.313Z,1.73
2022-08-03T16:01:28.015Z,2.17
2022-08-03T16:03:34.518Z,1.50
2022-08-03T16:05:36.995Z,2.40
2022-08-03T16:08:02.721Z,1.80
2022-08-03T16:10:06.813Z,1.67
2022-08-03T16:12:15.389Z,1.60
2022-08-03T16:14:32.085Z,1.90
2022-08-03T16:16:40.957Z,1.80
2022-08-03T16:18:43.260Z,1.70
2022-08-03T16:20:45.908Z,1.77
2022-08-03T16:22:48.651Z,2.00
2022-08-03T16:24:52.051Z,1.70
2022-08-03T16:26:54.272Z,2.07
2022-08-03T16:28:56.469Z,2.17
2022-08-03T16:30:58.542Z,2.20
2022-08-03T16:33:00.925Z,2.40
2022-08-03T16:35:03.292Z,1.80
2022-08-03T16:37:28.461Z,1.90
2022-08-03T16:39:28.757Z,2.17
2022-08-03T16:41:54.226Z,1.90
2022-08-03T16:43:53.750Z,2.00
2022-08-03T16:45:55.986Z,1.70
2022-08-03T16:48:01.710Z,2.10
2022-08-03T16:50:14.265Z,2.20
2022-08-03T16:52:19.572Z,2.03
2022-08-03T16:54:25.008Z,2.13
2022-08-03T16:56:30.213Z,2.10
2022-08-03T16:58:41.695Z,2.05
2022-08-03T17:00:46.422Z,2.37
2022-08-03T17:02:50.568Z,1.70
2022-08-03T17:04:53.880Z,1.77
2022-08-03T17:06:56.124Z,2.10
2022-08-03T17:08:59.147Z,2.60
2022-08-03T17:11:02.124Z,2.40
2022-08-03T17:13:04.710Z,2.13
2022-08-03T17:15:10.657Z,1.70
2022-08-03T17:17:17.692Z,2.17
2022-08-03T17:19:23.187Z,2.00
2022-08-03T17:21:30.973Z,1.70
2022-08-03T17:23:45.166Z,2.00
2022-08-03T17:26:02.417Z,1.90
2022-08-03T17:28:50.746Z,2.30
2022-08-03T17:30:49.348Z,2.00
2022-08-03T17:32:57.146Z,2.47
2022-08-03T17:35:00.478Z,2.20
2022-08-03T17:37:04.561Z,1.80
2022-08-03T17:39:07.523Z,2.17
2022-08-03T17:41:11.702Z,2.00
2022-08-03T17:44:13.140Z,2.10
2022-08-03T17:45:52.364Z,2.20
2022-08-03T17:47:57.371Z,2.20
2022-08-03T17:50:00.217Z,2.80
2022-08-03T17:52:06.215Z,3.10
2022-08-03T17:54:24.683Z,3.30
2022-08-03T17:56:45.978Z,2.10
2022-08-03T17:58:58.607Z,2.27
2022-08-03T18:02:02.787Z,2.10
2022-08-03T18:03:58.245Z,2.10
2022-08-03T18:06:10.562Z,2.10
2022-08-03T18:08:24.856Z,2.40
2022-08-03T18:10:35.829Z,2.33
2022-08-03T18:12:51.748Z,2.67
2022-08-03T18:15:01.497Z,2.50
2022-08-03T18:17:15.647Z,3.23
2022-08-03T18:19:19.772Z,2.30
2022-08-03T18:21:26.096Z,2.53
2022-08-03T18:23:36.941Z,3.20
2022-08-03T18:25:50.845Z,2.93
2022-08-03T18:27:58.868Z,3.37
2022-08-03T18:30:02.056Z,3.10
2022-08-03T18:32:12.978Z,2.90
2022-08-03T18:34:32.829Z,3.20
2022-08-03T18:36:37.844Z,3.70
2022-08-03T18:38:42.068Z,3.93
2022-08-03T18:40:49.044Z,3.20
2022-08-03T18:42:54.893Z,3.47
2022-08-03T18:44:57.274Z,4.10
2022-08-03T18:47:23.719Z,3.87
2022-08-03T18:49:49.013Z,3.93
2022-08-03T18:51:56.102Z,3.93
2022-08-03T18:54:07.390Z,4.20
2022-08-03T18:56:31.369Z,4.43
2022-08-03T18:59:03.796Z,4.87
2022-08-03T19:01:58.166Z,4.93
2022-08-03T19:04:13.386Z,5.13
2022-08-03T19:06:20.609Z,4.33
2022-08-03T19:08:37.274Z,5.13
2022-08-03T19:10:40.973Z,4.47
2022-08-03T19:13:36.328Z,4.63
2022-08-03T19:15:51.330Z,4.57
2022-08-03T19:17:57.351Z,4.70
2022-08-03T19:20:01.765Z,4.43
2022-08-03T19:22:05.608Z,4.80
2022-08-03T19:24:13.435Z,4.40
2022-08-03T19:26:26.677Z,3.97
2022-08-03T19:28:34.503Z,4.80
2022-08-03T19:30:53.284Z,2.87
2022-08-03T19:32:55.975Z,3.07
2022-08-03T19:35:00.491Z,3.60
2022-08-03T19:37:02.672Z,3.40
2022-08-03T19:39:09.006Z,3.30
2022-08-03T19:41:14.351Z,3.00
2022-08-03T19:43:21.112Z,3.20
2022-08-03T19:46:04.832Z,3.50
2022-08-03T19:47:59.687Z,3.47
2022-08-03T19:52:31.178Z,3.97
2022-08-03T19:54:54.054Z,3.70
2022-08-03T19:56:56.689Z,4.20
2022-08-03T19:58:59.533Z,4.20
2022-08-03T20:01:19.577Z,3.80
2022-08-03T20:03:27.753Z,3.60
2022-08-03T20:05:52.281Z,4.00
2022-08-03T20:08:00.177Z,3.70
2022-08-03T20:10:05.253Z,3.43
2022-08-03T20:12:11.554Z,3.97
2022-08-03T20:14:20.551Z,3.90
2022-08-03T20:16:28.312Z,3.53
2022-08-03T20:18:32.723Z,3.47
2022-08-03T20:20:38.673Z,2.97
2022-08-03T20:22:45.609Z,3.70
2022-08-03T20:24:52.732Z,3.40
2022-08-03T20:26:58.185Z,3.47
2022-08-03T20:29:09.940Z,3.37
2022-08-03T20:31:12.514Z,3.20
2022-08-03T20:33:18.391Z,3.70
2022-08-03T20:35:21.703Z,3.37
2022-08-03T20:37:23.806Z,3.00
2022-08-03T20:39:26.012Z,3.10
2022-08-03T20:41:30.730Z,3.47
2022-08-03T20:43:34.974Z,3.70
2022-08-03T20:45:59.417Z,3.03
2022-08-03T20:48:01.559Z,4.00
2022-08-03T20:50:04.522Z,4.00
2022-08-03T20:52:18.731Z,4.70
2022-08-03T20:54:29.363Z,4.40
2022-08-03T20:56:35.140Z,5.20
2022-08-03T20:58:37.878Z,6.40
2022-08-03T21:00:43.994Z,7.07
2022-08-03T21:02:46.121Z,7.90
2022-08-03T21:04:48.718Z,8.00
2022-08-03T21:06:57.272Z,6.77
2022-08-03T21:09:04.236Z,7.47
2022-08-03T21:11:12.795Z,7.57
2022-08-03T21:13:03.005Z,3.07
2022-08-03T21:13:30.527Z,6.57
2022-08-03T21:16:12.647Z,7.70
2022-08-03T21:17:57.823Z,8.20
2022-08-03T21:20:04.684Z,8.63
2022-08-03T21:22:08.682Z,8.27
2022-08-03T21:24:12.962Z,8.97
2022-08-03T21:26:16.870Z,10.00
2022-08-03T21:28:27.306Z,10.10
2022-08-03T21:30:30.428Z,9.40
2022-08-03T21:32:33.459Z,8.83
2022-08-03T21:34:36.167Z,8.13
2022-08-03T21:36:38.277Z,7.90
2022-08-03T21:38:41.061Z,7.90
2022-08-03T21:40:43.237Z,7.50
2022-08-03T21:42:45.987Z,7.60
2022-08-03T21:44:48.156Z,6.20
2022-08-03T21:46:53.368Z,7.40
2022-08-03T21:50:07.810Z,5.60
2022-08-03T21:51:25.325Z,6.03
2022-08-03T21:54:02.823Z,5.67
2022-08-03T21:55:57.748Z,5.57
2022-08-03T21:58:04.334Z,4.90
2022-08-03T22:00:17.732Z,4.37
2022-08-03T22:02:24.528Z,4.77
2022-08-03T22:04:50.315Z,5.13
2022-08-03T22:06:50.095Z,5.60
2022-08-03T22:08:55.556Z,5.67
2022-08-03T22:10:57.844Z,5.47
2022-08-03T22:13:06.515Z,7.67
2022-08-03T22:15:11.225Z,7.60
2022-08-03T22:17:14.452Z,5.97
2022-08-03T22:19:36.611Z,5.87
2022-08-03T22:21:39.574Z,6.73
2022-08-03T22:23:47.472Z,5.73
2022-08-03T22:25:52.512Z,5.33
2022-08-03T22:27:55.310Z,4.13
2022-08-03T22:30:06.069Z,4.10
2022-08-03T22:32:08.953Z,4.33
2022-08-03T22:34:11.153Z,4.77
2022-08-03T22:36:13.706Z,4.00
2022-08-03T22:38:17.576Z,3.73
2022-08-03T22:40:19.787Z,4.47
2022-08-03T22:42:23.481Z,4.00
2022-08-03T22:44:26.506Z,4.50
2022-08-03T22:46:29.267Z,4.37
2022-08-03T22:48:33.576Z,3.77
2022-08-03T22:50:37.096Z,4.17
2022-08-03T22:52:41.886Z,4.60
2022-08-03T22:54:44.441Z,4.60
2022-08-03T22:56:47.094Z,4.20
2022-08-03T22:58:49.247Z,3.83
2022-08-03T23:01:07.010Z,4.43
2022-08-03T23:03:09.390Z,5.17
2022-08-03T23:06:02.022Z,4.60
2022-08-03T23:08:03.420Z,5.10
2022-08-03T23:10:09.431Z,5.03
2022-08-03T23:12:16.032Z,5.80
2022-08-03T23:14:19.417Z,5.50
2022-08-03T23:16:27.949Z,4.37
2022-08-03T23:18:37.307Z,4.90
2022-08-03T23:20:40.767Z,5.20
2022-08-03T23:22:47.960Z,5.23
2022-08-03T23:24:53.685Z,4.40
2022-08-03T23:26:55.876Z,4.80
2022-08-03T23:29:01.708Z,4.73
2022-08-03T23:31:04.580Z,4.77
2022-08-03T23:33:07.138Z,5.00
2022-08-03T23:36:27.738Z,4.37
2022-08-03T23:38:04.471Z,4.37
2022-08-03T23:40:16.151Z,4.87
2022-08-03T23:42:19.944Z,5.17
2022-08-03T23:44:22.317Z,5.40
2022-08-03T23:46:26.015Z,5.53
2022-08-03T23:48:28.165Z,4.53
2022-08-03T23:50:40.376Z,4.70
2022-08-03T23:53:07.165Z,4.90
2022-08-03T23:55:41.739Z,5.70
2022-08-03T23:58:14.473Z,5.80
